createdAt,value
2023-05-21T00:00:10.688Z,99386.88
2023-05-21T00:03:16.500Z,99385.50
2023-05-21T00:06:21.093Z,99398.44
2023-05-21T00:09:23.510Z,99393.47
2023-05-21T00:12:26.103Z,99396.97
2023-05-21T00:15:28.459Z,99403.25
2023-05-21T00:18:32.466Z,99411.63
2023-05-21T00:21:34.767Z,99397.22
2023-05-21T00:24:36.983Z,99404.66
2023-05-21T00:27:39.402Z,99403.16
2023-05-21T00:30:43.130Z,99407.25
2023-05-21T00:33:45.355Z,99407.56
2023-05-21T00:36:47.807Z,99414.03
2023-05-21T00:39:50.482Z,99406.75
2023-05-21T00:42:57.130Z,99400.88
2023-05-21T00:45:59.846Z,99402.84
2023-05-21T00:49:02.133Z,99405.34
2023-05-21T00:52:05.433Z,99400.50
2023-05-21T00:55:08.772Z,99397.97
2023-05-21T00:58:11.138Z,99388.81
2023-05-21T01:01:14.149Z,99392.84
2023-05-21T01:04:16.669Z,99392.84
2023-05-21T01:07:18.928Z,99400.91
2023-05-21T01:10:21.169Z,99399.28
2023-05-21T01:13:24.337Z,99398.41
2023-05-21T01:16:26.743Z,99395.41
2023-05-21T01:19:29.177Z,99399.00
2023-05-21T01:22:32.527Z,99399.63
2023-05-21T01:25:35.804Z,99394.75
2023-05-21T01:28:38.461Z,99395.50
2023-05-21T01:32:09.795Z,99394.28
2023-05-21T01:35:15.015Z,99386.31
2023-05-21T01:38:25.332Z,99394.50
2023-05-21T01:41:29.938Z,99388.34
2023-05-21T01:44:33.025Z,99394.03
2023-05-21T01:47:36.316Z,99394.25
2023-05-21T01:50:39.648Z,99383.44
2023-05-21T01:53:42.136Z,99394.62
2023-05-21T01:56:44.438Z,99380.75
2023-05-21T01:59:47.885Z,99385.53
2023-05-21T02:02:50.835Z,99381.56
2023-05-21T02:05:53.227Z,99385.31
2023-05-21T02:08:55.734Z,99384.81
2023-05-21T02:11:58.282Z,99381.56
2023-05-21T02:15:00.514Z,99379.81
2023-05-21T02:18:03.568Z,99373.91
2023-05-21T02:21:05.905Z,99371.09
2023-05-21T02:24:08.200Z,99367.81
2023-05-21T02:27:10.671Z,99373.31
2023-05-21T02:30:14.433Z,99373.66
2023-05-21T02:33:16.710Z,99361.56
2023-05-21T02:36:19.021Z,99369.81
2023-05-21T02:39:21.379Z,99369.22
2023-05-21T02:42:23.842Z,99387.03
2023-05-21T02:45:26.249Z,99386.59
2023-05-21T02:48:28.456Z,99376.81
2023-05-21T02:51:30.817Z,99383.69
2023-05-21T02:54:33.043Z,99384.81
2023-05-21T02:57:35.235Z,99385.88
2023-05-21T03:00:37.450Z,99383.34
2023-05-21T03:03:39.713Z,99376.09
2023-05-21T03:06:42.014Z,99374.25
2023-05-21T03:09:44.272Z,99367.91
2023-05-21T03:12:47.209Z,99370.72
2023-05-21T03:15:49.397Z,99368.63
2023-05-21T03:18:51.790Z,99368.31
2023-05-21T03:21:54.702Z,99364.81
2023-05-21T03:24:58.263Z,99365.94
2023-05-21T03:28:00.482Z,99364.88
2023-05-21T03:31:02.763Z,99367.41
2023-05-21T03:34:05.026Z,99373.72
2023-05-21T03:37:07.240Z,99377.06
2023-05-21T03:40:09.853Z,99380.53
2023-05-21T03:43:12.135Z,99378.28
2023-05-21T03:46:14.352Z,99377.16
2023-05-21T03:49:16.583Z,99377.06
2023-05-21T03:52:18.839Z,99379.81
2023-05-21T03:55:21.093Z,99386.34
2023-05-21T03:58:23.472Z,99383.84
2023-05-21T04:01:25.695Z,99388.34
2023-05-21T04:04:29.536Z,99397.75
2023-05-21T04:07:31.935Z,99400.25
2023-05-21T04:10:34.717Z,99397.19
2023-05-21T04:13:36.953Z,99391.87
2023-05-21T04:16:39.243Z,99394.94
2023-05-21T04:19:42.057Z,99403.47
2023-05-21T04:22:44.403Z,99400.44
2023-05-21T04:25:50.807Z,99397.66
2023-05-21T04:28:59.413Z,99402.91
2023-05-21T04:32:01.661Z,99399.31
2023-05-21T04:35:04.368Z,99403.62
2023-05-21T04:38:06.611Z,99401.56
2023-05-21T04:41:10.893Z,99396.75
2023-05-21T04:44:14.977Z,99407.03
2023-05-21T04:47:21.101Z,99407.56
2023-05-21T04:50:24.341Z,99416.22
2023-05-21T04:53:26.625Z,99417.81
2023-05-21T04:56:29.606Z,99417.06
2023-05-21T04:59:31.998Z,99414.63
2023-05-21T05:02:34.288Z,99416.50
2023-05-21T05:05:36.773Z,99401.88
2023-05-21T05:08:39.243Z,99406.50
2023-05-21T05:11:41.508Z,99404.31
2023-05-21T05:14:43.766Z,99404.03
2023-05-21T05:17:48.357Z,99407.66
2023-05-21T05:20:50.639Z,99400.97
2023-05-21T05:23:52.967Z,99396.84
2023-05-21T05:26:55.168Z,99397.13
2023-05-21T05:29:57.381Z,99399.63
2023-05-21T05:32:59.637Z,99402.28
2023-05-21T05:36:01.834Z,99405.06
2023-05-21T05:39:04.099Z,99396.59
2023-05-21T05:42:06.348Z,99402.00
2023-05-21T05:45:09.121Z,99396.44
2023-05-21T05:48:12.069Z,99394.16
2023-05-21T05:51:15.482Z,99396.41
2023-05-21T05:54:17.788Z,99394.81
2023-05-21T05:57:20.044Z,99400.06
2023-05-21T06:00:22.385Z,99393.97
2023-05-21T06:03:24.683Z,99391.06
2023-05-21T06:06:26.947Z,99386.13
2023-05-21T06:09:29.162Z,99380.53
2023-05-21T06:12:31.380Z,99384.31
2023-05-21T06:15:33.879Z,99382.16
2023-05-21T06:18:36.239Z,99374.34
2023-05-21T06:21:38.611Z,99373.81
2023-05-21T06:24:40.873Z,99376.22
2023-05-21T06:27:43.178Z,99377.84
2023-05-21T06:30:45.525Z,99377.31
2023-05-21T06:33:49.559Z,99365.97
2023-05-21T06:36:51.882Z,99369.19
2023-05-21T06:39:54.104Z,99373.22
2023-05-21T06:42:56.653Z,99376.50
2023-05-21T06:45:58.891Z,99369.72
2023-05-21T06:49:01.467Z,99366.16
2023-05-21T06:52:03.865Z,99366.97
2023-05-21T06:55:07.099Z,99365.34
2023-05-21T06:58:09.376Z,99366.28
2023-05-21T07:01:14.494Z,99359.41
2023-05-21T07:04:16.764Z,99353.91
2023-05-21T07:07:19.065Z,99344.47
2023-05-21T07:10:21.413Z,99343.22
2023-05-21T07:13:23.620Z,99335.59
2023-05-21T07:16:26.045Z,99336.16
2023-05-21T07:19:28.362Z,99343.13
2023-05-21T07:22:30.696Z,99340.03
2023-05-21T07:25:33.016Z,99342.22
2023-05-21T07:28:35.210Z,99343.47
2023-05-21T07:31:37.555Z,99344.69
2023-05-21T07:34:39.877Z,99348.97
2023-05-21T07:37:42.136Z,99348.62
2023-05-21T07:40:44.686Z,99348.19
2023-05-21T07:43:46.929Z,99350.16
2023-05-21T07:46:49.197Z,99348.38
2023-05-21T07:49:51.599Z,99341.66
2023-05-21T07:52:53.946Z,99353.28
2023-05-21T07:55:56.198Z,99351.53
2023-05-21T07:58:58.481Z,99355.66
2023-05-21T08:02:00.856Z,99345.06
2023-05-21T08:05:03.408Z,99354.56
2023-05-21T08:08:05.749Z,99352.41
2023-05-21T08:11:07.960Z,99347.00
2023-05-21T08:14:10.332Z,99356.00
2023-05-21T08:17:12.750Z,99349.69
2023-05-21T08:20:15.348Z,99349.41
2023-05-21T08:23:17.596Z,99357.72
2023-05-21T08:26:19.878Z,99352.03
2023-05-21T08:29:22.148Z,99347.41
2023-05-21T08:32:24.444Z,99345.13
2023-05-21T08:35:26.705Z,99349.09
2023-05-21T08:38:30.450Z,99337.59
2023-05-21T08:41:35.597Z,99342.56
2023-05-21T08:44:38.212Z,99350.28
2023-05-21T08:47:43.810Z,99349.66
2023-05-21T08:50:46.575Z,99350.97
2023-05-21T08:53:50.594Z,99359.31
2023-05-21T08:56:53.470Z,99352.87
2023-05-21T08:59:55.914Z,99343.13
2023-05-21T09:03:01.812Z,99338.41
2023-05-21T09:06:04.204Z,99348.44
2023-05-21T09:09:26.373Z,99357.31
2023-05-21T09:12:28.786Z,99343.38
2023-05-21T09:15:31.547Z,99344.28
2023-05-21T09:18:33.998Z,99338.41
2023-05-21T09:21:36.206Z,99333.91
2023-05-21T09:24:38.637Z,99341.53
2023-05-21T09:27:41.075Z,99337.72
2023-05-21T09:30:47.784Z,99338.78
2023-05-21T09:33:50.753Z,99339.94
2023-05-21T09:36:56.850Z,99344.78
2023-05-21T09:39:59.070Z,99332.31
2023-05-21T09:43:01.392Z,99335.66
2023-05-21T09:46:03.710Z,99329.09
2023-05-21T09:49:06.090Z,99335.06
2023-05-21T09:52:08.354Z,99332.81
2023-05-21T09:55:12.661Z,99325.78
2023-05-21T09:58:14.900Z,99331.31
2023-05-21T10:01:20.160Z,99328.50
2023-05-21T10:04:23.402Z,99323.47
2023-05-21T10:07:26.495Z,99321.94
2023-05-21T10:10:30.311Z,99326.69
2023-05-21T10:13:34.397Z,99327.06
2023-05-21T10:16:37.401Z,99323.13
2023-05-21T10:19:41.142Z,99315.91
2023-05-21T10:22:44.672Z,99312.56
2023-05-21T10:25:47.369Z,99312.25
2023-05-21T10:28:50.987Z,99308.00
2023-05-21T10:31:53.418Z,99300.78
2023-05-21T10:34:58.664Z,99298.38
2023-05-21T10:38:04.546Z,99308.44
2023-05-21T10:41:07.106Z,99305.41
2023-05-21T10:44:33.747Z,99303.81
2023-05-21T10:48:16.584Z,99309.34
2023-05-21T10:51:22.555Z,99292.31
2023-05-21T10:54:42.253Z,99288.38
2023-05-21T10:58:16.793Z,99300.97
2023-05-21T11:01:19.502Z,99291.75
2023-05-21T11:04:23.478Z,99289.59
2023-05-21T11:07:57.047Z,99288.38
2023-05-21T11:10:59.508Z,99289.69
2023-05-21T11:14:01.760Z,99295.16
2023-05-21T11:17:15.569Z,99293.13
2023-05-21T11:20:21.778Z,99295.25
2023-05-21T11:23:24.028Z,99285.66
2023-05-21T11:26:28.821Z,99281.69
2023-05-21T11:29:42.123Z,99287.34
2023-05-21T11:33:12.276Z,99288.00
2023-05-21T11:36:14.663Z,99274.12
2023-05-21T11:39:23.959Z,99278.78
2023-05-21T11:42:34.407Z,99278.69
2023-05-21T11:45:36.732Z,99286.63
2023-05-21T11:48:39.137Z,99282.72
2023-05-21T11:51:41.576Z,99275.75
2023-05-21T11:54:51.924Z,99276.37
2023-05-21T11:57:55.393Z,99277.66
2023-05-21T12:00:57.805Z,99282.75
2023-05-21T12:04:04.475Z,99275.25
2023-05-21T12:07:10.403Z,99262.63
2023-05-21T12:10:13.181Z,99261.31
2023-05-21T12:13:15.444Z,99254.91
2023-05-21T12:16:17.760Z,99249.47
2023-05-21T12:19:20.113Z,99249.78
2023-05-21T12:22:24.589Z,99251.53
2023-05-21T12:25:27.484Z,99245.81
2023-05-21T12:28:30.065Z,99251.12
2023-05-21T12:31:32.963Z,99237.59
2023-05-21T12:34:46.193Z,99239.59
2023-05-21T12:37:50.620Z,99237.91
2023-05-21T12:40:53.002Z,99235.69
2023-05-21T12:43:55.238Z,99229.72
2023-05-21T12:46:58.203Z,99231.97
2023-05-21T12:50:04.425Z,99239.41
2023-05-21T12:53:09.274Z,99233.41
2023-05-21T12:56:12.301Z,99220.53
2023-05-21T12:59:15.520Z,99215.59
2023-05-21T13:02:25.027Z,99218.31
2023-05-21T13:05:27.305Z,99221.38
2023-05-21T13:08:29.635Z,99216.00
2023-05-21T13:11:31.868Z,99208.53
2023-05-21T13:14:34.219Z,99213.47
2023-05-21T13:17:36.502Z,99212.69
2023-05-21T13:20:38.946Z,99201.63
2023-05-21T13:23:41.465Z,99197.50
2023-05-21T13:26:43.696Z,99191.50
2023-05-21T13:29:46.089Z,99193.75
2023-05-21T13:32:48.695Z,99200.25
2023-05-21T13:35:51.878Z,99193.03
2023-05-21T13:38:56.397Z,99181.06
2023-05-21T13:41:59.278Z,99184.53
2023-05-21T13:45:01.618Z,99181.31
2023-05-21T13:48:04.032Z,99179.16
2023-05-21T13:51:06.362Z,99180.91
2023-05-21T13:54:08.757Z,99179.34
2023-05-21T13:57:11.118Z,99181.00
2023-05-21T14:00:15.478Z,99178.56
2023-05-21T14:03:17.887Z,99171.13
2023-05-21T14:06:20.151Z,99173.72
2023-05-21T14:09:23.478Z,99173.09
2023-05-21T14:12:26.742Z,99176.38
2023-05-21T14:15:28.966Z,99172.84
2023-05-21T14:18:31.174Z,99175.56
2023-05-21T14:21:33.383Z,99173.03
2023-05-21T14:24:35.593Z,99171.53
2023-05-21T14:27:38.290Z,99174.38
2023-05-21T14:30:40.724Z,99168.75
2023-05-21T14:33:42.926Z,99163.16
2023-05-21T14:36:45.270Z,99159.72
2023-05-21T14:39:47.509Z,99160.97
2023-05-21T14:42:52.208Z,99158.94
2023-05-21T14:45:54.472Z,99149.38
2023-05-21T14:48:59.228Z,99145.84
2023-05-21T14:52:01.525Z,99156.66
2023-05-21T14:55:04.364Z,99155.22
2023-05-21T14:58:07.216Z,99151.53
2023-05-21T15:01:09.499Z,99149.09
2023-05-21T15:04:12.061Z,99154.34
2023-05-21T15:07:14.416Z,99143.53
2023-05-21T15:10:18.546Z,99141.03
2023-05-21T15:13:21.458Z,99144.50
2023-05-21T15:16:23.856Z,99142.72
2023-05-21T15:19:26.263Z,99135.84
2023-05-21T15:22:28.592Z,99142.78
2023-05-21T15:25:30.858Z,99138.50
2023-05-21T15:28:33.088Z,99139.75
2023-05-21T15:31:35.548Z,99141.03
2023-05-21T15:34:37.956Z,99138.19
2023-05-21T15:37:40.555Z,99143.84
2023-05-21T15:40:42.906Z,99138.19
2023-05-21T15:43:46.265Z,99135.00
2023-05-21T15:46:50.005Z,99128.88
2023-05-21T15:49:52.343Z,99132.72
2023-05-21T15:52:54.571Z,99130.47
2023-05-21T15:55:57.308Z,99139.63
2023-05-21T15:59:01.397Z,99140.34
2023-05-21T16:02:03.756Z,99138.84
2023-05-21T16:05:06.299Z,99140.88
2023-05-21T16:08:10.763Z,99141.09
2023-05-21T16:11:13.242Z,99147.94
2023-05-21T16:14:15.522Z,99138.28
2023-05-21T16:17:19.599Z,99145.75
2023-05-21T16:20:22.208Z,99147.47
2023-05-21T16:23:24.462Z,99148.88
2023-05-21T16:26:27.050Z,99148.88
2023-05-21T16:29:29.301Z,99138.13
2023-05-21T16:32:31.614Z,99135.16
2023-05-21T16:35:34.050Z,99145.66
2023-05-21T16:38:36.338Z,99145.75
2023-05-21T16:41:38.576Z,99146.03
2023-05-21T16:44:40.887Z,99151.06
2023-05-21T16:47:43.158Z,99150.66
2023-05-21T16:50:46.955Z,99154.28
2023-05-21T16:53:49.209Z,99152.47
2023-05-21T16:56:51.487Z,99151.53
2023-05-21T16:59:53.741Z,99155.28
2023-05-21T17:02:56.217Z,99152.03
2023-05-21T17:05:58.956Z,99160.69
2023-05-21T17:09:01.852Z,99158.59
2023-05-21T17:12:04.515Z,99154.72
2023-05-21T17:15:07.332Z,99160.38
2023-05-21T17:18:09.606Z,99159.88
2023-05-21T17:21:11.949Z,99157.31
2023-05-21T17:24:14.182Z,99159.38
2023-05-21T17:27:16.417Z,99162.53
2023-05-21T17:30:18.862Z,99151.66
2023-05-21T17:33:21.424Z,99153.53
2023-05-21T17:36:23.668Z,99155.81
2023-05-21T17:39:26.056Z,99161.19
2023-05-21T17:42:28.358Z,99146.97
2023-05-21T17:45:30.557Z,99160.03
2023-05-21T17:48:32.786Z,99161.00
2023-05-21T17:51:35.069Z,99157.63
2023-05-21T17:54:37.312Z,99157.44
2023-05-21T17:57:39.548Z,99155.37
2023-05-21T18:00:41.851Z,99160.91
2023-05-21T18:03:44.324Z,99168.41
2023-05-21T18:06:46.587Z,99160.97
2023-05-21T18:09:48.880Z,99164.84
2023-05-21T18:12:51.099Z,99161.06
2023-05-21T18:15:56.307Z,99160.41
2023-05-21T18:18:58.737Z,99154.97
2023-05-21T18:22:01.013Z,99150.00
2023-05-21T18:25:04.235Z,99152.78
2023-05-21T18:28:06.572Z,99146.09
2023-05-21T18:31:08.920Z,99151.56
2023-05-21T18:34:11.233Z,99146.44
2023-05-21T18:37:13.467Z,99140.22
2023-05-21T18:40:16.995Z,99152.38
2023-05-21T18:43:19.240Z,99154.03
2023-05-21T18:46:21.804Z,99150.50
2023-05-21T18:49:24.380Z,99154.00
2023-05-21T18:52:26.769Z,99151.59
2023-05-21T18:55:29.095Z,99152.31
2023-05-21T18:58:33.077Z,99159.12
2023-05-21T19:01:35.630Z,99164.97
2023-05-21T19:04:38.040Z,99163.94
2023-05-21T19:07:43.732Z,99162.78
2023-05-21T19:10:46.014Z,99160.28
2023-05-21T19:13:48.276Z,99173.97
2023-05-21T19:16:50.516Z,99173.75
2023-05-21T19:19:56.153Z,99174.78
2023-05-21T19:22:58.630Z,99188.91
2023-05-21T19:26:01.294Z,99181.78
2023-05-21T19:29:03.528Z,99191.38
2023-05-21T19:32:06.412Z,99192.72
2023-05-21T19:35:08.774Z,99191.97
2023-05-21T19:38:11.156Z,99189.84
2023-05-21T19:41:13.566Z,99197.47
2023-05-21T19:44:15.967Z,99195.19
2023-05-21T19:47:18.229Z,99192.53
2023-05-21T19:50:20.542Z,99192.03
2023-05-21T19:53:23.291Z,99189.69
2023-05-21T19:56:26.719Z,99194.94
2023-05-21T19:59:28.968Z,99193.31
2023-05-21T20:02:31.507Z,99189.34
2023-05-21T20:05:33.736Z,99195.44
2023-05-21T20:08:36.128Z,99187.00
2023-05-21T20:11:38.373Z,99190.38
2023-05-21T20:14:41.732Z,99192.59
2023-05-21T20:17:44.711Z,99189.50
2023-05-21T20:20:47.333Z,99187.69
2023-05-21T20:23:49.668Z,99183.88
2023-05-21T20:26:52.174Z,99188.31
2023-05-21T20:29:54.384Z,99185.28
2023-05-21T20:32:57.489Z,99193.44
2023-05-21T20:36:00.307Z,99187.09
2023-05-21T20:39:02.851Z,99185.16
2023-05-21T20:42:08.608Z,99177.37
2023-05-21T20:45:12.873Z,99171.44
2023-05-21T20:48:15.120Z,99175.12
2023-05-21T20:51:17.360Z,99184.22
2023-05-21T20:54:19.549Z,99174.69
2023-05-21T20:57:26.224Z,99176.06
2023-05-21T21:00:28.713Z,99179.00
2023-05-21T21:03:34.321Z,99182.00
2023-05-21T21:06:38.442Z,99178.34
2023-05-21T21:09:41.260Z,99181.41
2023-05-21T21:12:43.461Z,99191.00
2023-05-21T21:15:45.752Z,99187.91
2023-05-21T21:18:48.056Z,99185.16
2023-05-21T21:21:51.505Z,99193.94
2023-05-21T21:24:53.710Z,99190.56
2023-05-21T21:27:55.979Z,99200.34
2023-05-21T21:30:58.306Z,99211.75
2023-05-21T21:34:00.933Z,99206.53
2023-05-21T21:37:03.261Z,99207.91
2023-05-21T21:40:06.486Z,99204.44
2023-05-21T21:43:08.750Z,99206.63
2023-05-21T21:46:10.982Z,99198.66
2023-05-21T21:49:14.449Z,99202.56
2023-05-21T21:52:17.729Z,99209.19
2023-05-21T21:55:20.035Z,99208.81
2023-05-21T21:58:22.242Z,99207.13
2023-05-21T22:01:24.534Z,99204.53
2023-05-21T22:04:26.898Z,99200.91
2023-05-21T22:07:32.013Z,99193.53
2023-05-21T22:10:38.195Z,99194.31
2023-05-21T22:13:41.847Z,99189.19
2023-05-21T22:16:44.176Z,99197.41
2023-05-21T22:19:46.486Z,99196.09
2023-05-21T22:22:49.422Z,99195.91
2023-05-21T22:25:51.718Z,99196.38
2023-05-21T22:28:53.922Z,99196.62
2023-05-21T22:31:56.204Z,99191.22
2023-05-21T22:34:58.431Z,99188.88
2023-05-21T22:38:01.740Z,99197.97
2023-05-21T22:41:04.045Z,99200.59
2023-05-21T22:44:06.261Z,99194.97
2023-05-21T22:47:09.524Z,99190.72
2023-05-21T22:50:12.870Z,99187.38
2023-05-21T22:53:15.122Z,99188.03
2023-05-21T22:56:17.371Z,99201.16
2023-05-21T22:59:19.576Z,99206.03
2023-05-21T23:02:21.846Z,99198.91
2023-05-21T23:05:24.183Z,99196.16
2023-05-21T23:08:26.802Z,99191.72
2023-05-21T23:11:29.139Z,99187.75
2023-05-21T23:14:31.410Z,99188.97
2023-05-21T23:17:33.834Z,99201.03
2023-05-21T23:20:36.901Z,99187.63
2023-05-21T23:23:39.505Z,99184.66
2023-05-21T23:26:41.721Z,99172.31
2023-05-21T23:29:43.967Z,99173.94
2023-05-21T23:32:46.492Z,99182.03
2023-05-21T23:35:48.873Z,99190.72
2023-05-21T23:38:51.103Z,99187.06
2023-05-21T23:41:53.341Z,99196.44
2023-05-21T23:44:55.766Z,99199.28
2023-05-21T23:47:58.039Z,99187.72
2023-05-21T23:51:00.900Z,99192.56
2023-05-21T23:54:03.361Z,99201.22
2023-05-21T23:57:06.382Z,99207.97
